Muzambinho, Brazil
Current Conditions -  °F | °C
As of 10:00 AM on Friday 21 Nov 2014 (Local Time) from SBYS Reporting Station
Clear Clear  
Wind Chill: 82°   Ceiling: Unl
Heat Index: 82°   Visibility: 6mi
Dew Point: 57°   Wind: 10mph
Humidity: 42%   Direction: 40°NE
Pressure: 30.03"   Gusts: NA
Location:  21.38°S, 46.53°W
Report Text: SBYS 211200Z 04009KT CAVOK 28/14 Q1017
Loading
Personal Weather Stations






























Interactive Weather Map New forecast layout! Learn more

10-Day Weather Forecast

Advertisements
Track Severe Weather on mobile